Time;durP1;ratioP1;P1;durP2;ratioP2;P2;SDS_P1;SDS_P2;PMS_P1;PMS_P2;Temp;Humidity;BMP_temperature;BMP_pressure;BME280_temperature;BME280_humidity;BME280_pressure;Samples;Min_cycle;Max_cycle;Signal;HPM_P1;HPM_P2
2023/05/29 00:01:25;;;;;;;;;;;;;;;22.27;49.29;100943.09;5032832;28;19974;-86
2023/05/29 00:03:51;;;;;;;;;;;;;;;22.27;49.29;100945.75;5029754;28;19923;-88
2023/05/29 00:06:16;;;;;;;;;;;;;;;22.32;49.10;100941.38;5033020;28;19928;-86
2023/05/29 00:08:42;;;;;;;;;;;;;;;22.28;49.40;100933.34;5031176;28;19925;-87
2023/05/29 00:11:08;;;;;;;;;;;;;;;22.28;49.22;100933.34;5051155;28;19924;-87
2023/05/29 00:13:33;;;;;;;;;;;;;;;22.29;49.22;100932.47;5034013;28;19925;-87
2023/05/29 00:16:00;;;;;;;;;;;;;;;22.30;49.03;100935.13;5051807;28;20283;-87
2023/05/29 00:18:26;;;;;;;;;;;;;;;22.27;49.29;100934.25;5052298;28;19921;-86
2023/05/29 00:20:52;;;;;;;;;;;;;;;22.24;49.26;100932.41;5032627;28;19924;-86
2023/05/29 00:23:18;;;;;;;;;;;;;;;22.26;49.16;100925.34;5051179;28;19921;-87
2023/05/29 00:25:43;;;;;;;;;;;;;;;22.24;49.42;100923.56;5014508;28;19921;-88
2023/05/29 00:28:09;;;;;;;;;;;;;;;22.26;49.25;100933.31;5031309;28;20382;-87
2023/05/29 00:30:34;;;;;;;;;;;;;;;22.25;49.33;100936.00;5030930;28;20372;-88
2023/05/29 00:33:00;;;;;;;;;;;;;;;22.29;49.31;100935.16;5040217;28;19963;-89
2023/05/29 00:35:25;;;;;;;;;;;;;;;22.26;49.28;100937.75;5010178;28;19928;-88
2023/05/29 00:37:51;;;;;;;;;;;;;;;22.23;49.40;100937.75;5051298;28;19942;-89
2023/05/29 00:40:16;;;;;;;;;;;;;;;22.28;49.34;100936.88;5031603;28;19921;-88
2023/05/29 00:42:42;;;;;;;;;;;;;;;22.27;49.30;100931.59;5032872;28;19968;-89
2023/05/29 00:45:07;;;;;;;;;;;;;;;22.30;49.01;100942.22;5032274;28;19921;-88
2023/05/29 00:47:33;;;;;;;;;;;;;;;22.23;49.09;100946.63;5033176;28;19979;-88
2023/05/29 00:49:58;;;;;;;;;;;;;;;22.23;49.09;100938.63;5031825;28;19920;-89
2023/05/29 00:52:24;;;;;;;;;;;;;;;22.25;49.15;100941.31;5031142;28;20530;-88
2023/05/29 00:54:50;;;;;;;;;;;;;;;22.24;49.01;100947.50;5028785;28;19971;-87
2023/05/29 00:57:15;;;;;;;;;;;;;;;22.29;49.02;100936.03;5041841;28;19921;-89
2023/05/29 00:59:41;;;;;;;;;;;;;;;22.23;49.06;100937.75;5016243;28;19920;-89
2023/05/29 01:02:07;;;;;;;;;;;;;;;22.27;48.97;100934.25;5031840;28;19924;-89
2023/05/29 01:04:33;;;;;;;;;;;;;;;22.21;49.07;100934.16;5033044;28;19962;-89
2023/05/29 01:07:00;;;;;;;;;;;;;;;22.25;48.94;100936.00;5030760;28;20368;-88
2023/05/29 01:09:26;;;;;;;;;;;;;;;22.24;48.98;100939.50;5028403;28;19955;-89
2023/05/29 01:12:10;;;;;;;;;;;;;;;22.23;49.02;100933.31;5016843;28;19920;-88
2023/05/29 01:14:49;;;;;;;;;;;;;;;22.21;48.99;100934.16;5046548;28;19921;-89
2023/05/29 01:17:15;;;;;;;;;;;;;;;22.25;48.87;100934.22;5019660;28;20484;-89
2023/05/29 01:19:59;;;;;;;;;;;;;;;22.21;49.11;100942.13;5043248;28;20345;-87
2023/05/29 01:22:46;;;;;;;;;;;;;;;22.16;48.96;100944.72;5044986;28;19920;-89
2023/05/29 01:25:17;;;;;;;;;;;;;;;22.21;48.88;100936.81;5026665;28;19921;-90
2023/05/29 01:27:44;;;;;;;;;;;;;;;22.19;49.07;100935.91;5046881;28;19921;-89
2023/05/29 01:30:12;;;;;;;;;;;;;;;22.22;49.02;100949.22;5046711;28;19920;-89
2023/05/29 01:32:39;;;;;;;;;;;;;;;22.22;49.00;100941.25;5046533;28;19929;-89
2023/05/29 01:35:05;;;;;;;;;;;;;;;22.25;48.93;100949.28;5010691;28;19977;-89
2023/05/29 01:37:30;;;;;;;;;;;;;;;22.19;49.09;100943.88;5027992;28;20011;-88
2023/05/29 01:39:56;;;;;;;;;;;;;;;22.21;49.00;100943.00;5025719;28;19921;-89
2023/05/29 01:42:22;;;;;;;;;;;;;;;22.17;49.14;100942.09;5029897;28;19932;-88
2023/05/29 01:44:47;;;;;;;;;;;;;;;22.15;49.11;100937.63;5011222;28;19921;-88
2023/05/29 01:47:13;;;;;;;;;;;;;;;22.17;49.14;100944.75;5020297;28;19928;-88
2023/05/29 01:49:39;;;;;;;;;;;;;;;22.20;49.02;100943.88;5030855;28;20298;-88
2023/05/29 01:52:05;;;;;;;;;;;;;;;22.26;48.97;100943.97;5031898;28;19920;-88
2023/05/29 01:54:31;;;;;;;;;;;;;;;22.23;48.74;100943.94;5013297;28;19917;-88
2023/05/29 01:56:56;;;;;;;;;;;;;;;22.20;48.78;100940.31;5031759;28;19921;-89
2023/05/29 01:59:21;;;;;;;;;;;;;;;22.16;48.96;100942.06;5031836;28;19939;-88
2023/05/29 02:01:47;;;;;;;;;;;;;;;22.18;48.79;100940.31;5009466;28;20011;-89
2023/05/29 02:04:12;;;;;;;;;;;;;;;22.15;48.86;100938.53;5013648;28;20071;-89
2023/05/29 02:06:38;;;;;;;;;;;;;;;22.17;48.85;100943.88;5044130;28;19957;-89
2023/05/29 02:09:03;;;;;;;;;;;;;;;22.25;48.72;100938.66;5046320;28;20628;-89
2023/05/29 02:11:29;;;;;;;;;;;;;;;22.15;48.78;100940.28;5021918;28;19932;-88
2023/05/29 02:13:54;;;;;;;;;;;;;;;22.15;48.74;100937.63;5028679;28;19921;-89
2023/05/29 02:16:20;;;;;;;;;;;;;;;22.14;48.74;100942.06;5045369;28;20423;-89
2023/05/29 02:18:46;;;;;;;;;;;;;;;22.17;48.72;100942.09;5023831;28;19925;-89
2023/05/29 02:21:12;;;;;;;;;;;;;;;22.15;48.72;100945.63;5038868;28;19991;-91
2023/05/29 02:23:38;;;;;;;;;;;;;;;22.15;48.64;100949.16;5015161;28;19921;-91
2023/05/29 02:26:05;;;;;;;;;;;;;;;22.15;48.66;100951.81;5030735;28;20477;-91
2023/05/29 02:28:37;;;;;;;;;;;;;;;22.15;48.61;100956.25;5010483;28;19924;-90
2023/05/29 02:31:03;;;;;;;;;;;;;;;22.13;48.63;100948.25;5023295;28;19956;-90
2023/05/29 02:33:29;;;;;;;;;;;;;;;22.16;48.49;100947.38;5010204;28;20476;-88
2023/05/29 02:35:55;;;;;;;;;;;;;;;22.15;48.55;100951.81;5013915;28;19928;-90
2023/05/29 02:38:20;;;;;;;;;;;;;;;22.17;48.57;100952.72;5010632;28;19995;-91
2023/05/29 02:40:46;;;;;;;;;;;;;;;21.60;48.85;100857.34;5010870;28;20440;-88
2023/05/29 02:43:12;;;;;;;;;;;;;;;22.15;48.81;100951.81;5016946;28;19929;-89
2023/05/29 02:45:39;;;;;;;;;;;;;;;22.13;48.82;100956.22;5047084;28;19920;-90
2023/05/29 02:48:06;;;;;;;;;;;;;;;22.12;48.92;100950.91;5016819;28;19960;-90
2023/05/29 02:50:31;;;;;;;;;;;;;;;22.12;48.80;100953.59;5022577;28;20007;-89
2023/05/29 02:52:56;;;;;;;;;;;;;;;22.11;48.72;100954.44;5026029;28;20659;-89
2023/05/29 02:55:22;;;;;;;;;;;;;;;22.14;48.71;100955.38;5019284;28;20575;-89
2023/05/29 02:57:52;;;;;;;;;;;;;;;22.11;48.82;100949.13;5025837;28;19921;-89
2023/05/29 03:00:18;;;;;;;;;;;;;;;22.12;48.80;100942.94;5017883;28;19921;-89
2023/05/29 03:02:43;;;;;;;;;;;;;;;22.10;48.78;100950.00;5032711;28;19990;-87
2023/05/29 03:05:09;;;;;;;;;;;;;;;22.09;48.87;100953.53;5064429;28;19992;-88
2023/05/29 03:07:34;;;;;;;;;;;;;;;22.08;48.89;100960.63;5021583;28;20388;-88
2023/05/29 03:10:03;;;;;;;;;;;;;;;22.10;48.94;100965.97;5031710;28;19921;-87
2023/05/29 03:12:29;;;;;;;;;;;;;;;22.11;48.72;100960.66;5044533;28;20028;-87
2023/05/29 03:14:56;;;;;;;;;;;;;;;22.12;48.65;100957.13;5031081;28;20429;-88
2023/05/29 03:17:21;;;;;;;;;;;;;;;22.19;48.59;100965.16;5030894;28;19920;-87
2023/05/29 03:19:47;;;;;;;;;;;;;;;22.13;48.69;100963.31;5032787;28;20386;-87
2023/05/29 03:22:12;;;;;;;;;;;;;;;22.14;48.83;100960.69;5031344;28;19931;-88
2023/05/29 03:24:38;;;;;;;;;;;;;;;22.11;48.95;100963.31;5046017;28;20007;-88
2023/05/29 03:27:04;;;;;;;;;;;;;;;22.09;49.05;100962.41;5021174;28;19925;-89
2023/05/29 03:29:31;;;;;;;;;;;;;;;22.10;48.92;100960.66;5034111;28;19920;-88
2023/05/29 03:31:56;;;;;;;;;;;;;;;22.10;48.89;100958.00;5032455;28;19925;-89
2023/05/29 03:34:22;;;;;;;;;;;;;;;22.08;48.98;100955.31;5016231;28;20004;-88
2023/05/29 03:36:47;;;;;;;;;;;;;;;22.09;48.76;100954.41;5033273;28;20528;-88
2023/05/29 03:39:13;;;;;;;;;;;;;;;22.07;48.68;100964.16;5033365;28;19966;-88
2023/05/29 03:41:38;;;;;;;;;;;;;;;22.09;48.68;100970.38;5053258;28;20457;-89
2023/05/29 03:44:04;;;;;;;;;;;;;;;22.11;48.66;100967.75;5028470;28;20462;-89
2023/05/29 03:46:31;;;;;;;;;;;;;;;22.11;48.46;100973.94;5012976;28;20404;-89
2023/05/29 03:48:59;;;;;;;;;;;;;;;22.10;48.45;100966.84;5022624;28;20008;-91
2023/05/29 03:51:25;;;;;;;;;;;;;;;22.09;48.43;100969.50;5028627;28;20535;-89
2023/05/29 03:53:55;;;;;;;;;;;;;;;22.07;48.50;100963.25;5031050;28;19945;-90
2023/05/29 03:56:21;;;;;;;;;;;;;;;22.11;48.39;100967.75;5031101;28;19925;-89
2023/05/29 03:58:46;;;;;;;;;;;;;;;22.09;48.49;100969.50;5010986;28;19996;-86
2023/05/29 04:01:12;;;;;;;;;;;;;;;22.10;48.46;100964.19;5029794;28;20532;-87
2023/05/29 04:03:37;;;;;;;;;;;;;;;22.05;48.52;100965.00;5026736;28;20437;-86
2023/05/29 04:06:03;;;;;;;;;;;;;;;22.03;48.75;100972.09;5024175;28;20326;-87
2023/05/29 04:08:29;;;;;;;;;;;;;;;22.04;48.70;100980.09;5030500;28;19998;-87
2023/05/29 04:10:54;;;;;;;;;;;;;;;22.09;48.73;100966.84;5020839;28;20559;-87
2023/05/29 04:13:20;;;;;;;;;;;;;;;22.04;48.92;100971.22;5022601;28;19924;-87
2023/05/29 04:15:45;;;;;;;;;;;;;;;22.06;48.91;100972.13;5029822;28;19921;-87
2023/05/29 04:18:11;;;;;;;;;;;;;;;22.06;48.90;100967.69;5038364;28;19928;-87
2023/05/29 04:20:36;;;;;;;;;;;;;;;22.05;48.93;100965.00;5014562;28;19921;-86
2023/05/29 04:23:02;;;;;;;;;;;;;;;22.06;48.86;100969.47;5027411;28;20501;-86
2023/05/29 04:25:28;;;;;;;;;;;;;;;22.09;48.68;100967.72;5030484;28;19929;-86
2023/05/29 04:27:53;;;;;;;;;;;;;;;22.06;48.67;100973.00;5029426;28;19929;-86
2023/05/29 04:30:18;;;;;;;;;;;;;;;22.04;48.75;100972.09;5027369;28;20781;-87
2023/05/29 04:32:44;;;;;;;;;;;;;;;22.06;48.62;100969.47;5028110;28;19967;-86
2023/05/29 04:35:10;;;;;;;;;;;;;;;22.05;48.51;100965.00;5025788;28;19921;-87
2023/05/29 04:37:39;;;;;;;;;;;;;;;22.06;48.39;100956.19;5023436;28;20354;-86
2023/05/29 04:40:13;;;;;;;;;;;;;;;22.06;48.45;100969.47;5026504;28;19932;-86
2023/05/29 04:42:41;;;;;;;;;;;;;;;22.04;48.35;100969.44;5018707;28;19921;-88
2023/05/29 04:45:08;;;;;;;;;;;;;;;22.09;48.31;100974.81;5036689;28;19950;-87
2023/05/29 04:47:33;;;;;;;;;;;;;;;22.03;48.58;100986.25;5032354;28;20027;-87
2023/05/29 04:50:02;;;;;;;;;;;;;;;22.05;48.58;100988.94;5031733;28;20419;-86
2023/05/29 04:52:28;;;;;;;;;;;;;;;22.04;48.50;100982.75;5015932;28;19920;-90
2023/05/29 04:54:54;;;;;;;;;;;;;;;22.02;48.41;100987.16;5037917;28;19928;-84
2023/05/29 04:57:27;;;;;;;;;;;;;;;22.02;48.48;100986.28;5038449;28;19928;-84
2023/05/29 05:00:22;;;;;;;;;;;;;;;22.04;48.31;100996.03;5045206;28;19982;-84
2023/05/29 05:03:16;;;;;;;;;;;;;;;22.05;48.38;100994.28;5025954;28;19967;-85
2023/05/29 05:05:43;;;;;;;;;;;;;;;22.03;48.36;100994.25;5046945;28;19927;-84
2023/05/29 05:08:09;;;;;;;;;;;;;;;22.03;48.37;100996.91;5047272;28;19978;-84
2023/05/29 05:10:35;;;;;;;;;;;;;;;22.04;48.50;100998.69;5026709;28;20020;-86
2023/05/29 05:13:02;;;;;;;;;;;;;;;22.02;48.68;100997.78;5028959;28;20015;-85
2023/05/29 05:15:39;;;;;;;;;;;;;;;22.01;48.57;101001.31;5041436;28;19928;-85
2023/05/29 05:18:20;;;;;;;;;;;;;;;22.03;48.48;100998.69;5040430;28;19956;-84
2023/05/29 05:20:52;;;;;;;;;;;;;;;22.02;48.50;100994.25;5049550;28;19931;-85
2023/05/29 05:23:18;;;;;;;;;;;;;;;22.02;48.42;100997.78;5020819;28;19921;-84
2023/05/29 05:25:43;;;;;;;;;;;;;;;22.03;48.82;100999.56;5029724;28;19978;-85
2023/05/29 05:28:09;;;;;;;;;;;;;;;22.04;48.67;101003.13;5046807;28;19982;-82
2023/05/29 05:30:35;;;;;;;;;;;;;;;22.04;48.56;100992.50;5045341;28;19928;-84
2023/05/29 05:33:00;;;;;;;;;;;;;;;22.03;48.47;100996.91;5049314;28;19921;-83
2023/05/29 05:35:26;;;;;;;;;;;;;;;22.02;48.51;100989.81;5047468;28;19960;-84
2023/05/29 05:37:51;;;;;;;;;;;;;;;21.99;48.63;100989.75;5041679;28;19921;-84
2023/05/29 05:40:17;;;;;;;;;;;;;;;22.01;48.49;100998.66;5047613;28;20455;-84
2023/05/29 05:42:42;;;;;;;;;;;;;;;22.03;48.39;100998.69;5046457;28;20020;-86
2023/05/29 05:45:08;;;;;;;;;;;;;;;22.01;48.47;101005.75;5046705;28;20038;-84
2023/05/29 05:47:33;;;;;;;;;;;;;;;22.00;48.57;101007.53;5045718;28;20454;-85
2023/05/29 05:49:59;;;;;;;;;;;;;;;21.99;48.65;101004.84;5027509;28;19954;-84
2023/05/29 05:52:25;;;;;;;;;;;;;;;22.00;48.54;101012.84;5044491;28;19978;-84
2023/05/29 05:54:51;;;;;;;;;;;;;;;22.00;48.65;101009.31;5044048;28;19928;-84
2023/05/29 05:57:16;;;;;;;;;;;;;;;21.99;48.76;101008.38;5031228;28;19920;-87
2023/05/29 05:59:42;;;;;;;;;;;;;;;21.99;48.93;101008.38;5050714;28;19917;-83
2023/05/29 06:02:07;;;;;;;;;;;;;;;22.01;48.94;101005.75;5050908;28;20026;-86
2023/05/29 06:04:33;;;;;;;;;;;;;;;21.99;49.00;101002.19;5050508;28;19916;-83
2023/05/29 06:06:58;;;;;;;;;;;;;;;21.97;49.11;100994.22;5049773;28;20769;-85
2023/05/29 06:09:24;;;;;;;;;;;;;;;22.00;49.00;100996.00;5050576;28;20386;-86
2023/05/29 06:11:50;;;;;;;;;;;;;;;22.01;49.18;101003.09;5033338;28;20543;-85
2023/05/29 06:14:16;;;;;;;;;;;;;;;22.00;49.05;101006.63;5050591;28;19913;-83
2023/05/29 06:16:41;;;;;;;;;;;;;;;22.02;49.02;101004.88;5050986;28;19923;-88
2023/05/29 06:19:07;;;;;;;;;;;;;;;22.01;48.94;101009.28;5050918;28;19917;-86
2023/05/29 06:21:32;;;;;;;;;;;;;;;22.04;48.76;101011.13;5032758;28;20306;-86
2023/05/29 06:23:57;;;;;;;;;;;;;;;22.00;48.72;101012.84;5050483;28;19928;-85
2023/05/29 06:26:25;;;;;;;;;;;;;;;22.02;48.74;101010.22;5050374;28;19921;-84
2023/05/29 06:28:51;;;;;;;;;;;;;;;22.03;48.57;101026.16;5032461;28;19917;-85
2023/05/29 06:31:16;;;;;;;;;;;;;;;22.01;48.50;101014.59;5032755;28;19923;-83
2023/05/29 06:33:41;;;;;;;;;;;;;;;22.00;48.62;101022.59;5050677;28;19967;-86
2023/05/29 06:36:07;;;;;;;;;;;;;;;21.99;48.57;101021.69;5052220;28;19924;-86
2023/05/29 06:38:32;;;;;;;;;;;;;;;21.98;48.56;101024.34;5054357;28;20283;-84
2023/05/29 06:40:58;;;;;;;;;;;;;;;21.96;48.66;101024.31;5054538;28;19917;-86
2023/05/29 06:43:23;;;;;;;;;;;;;;;21.95;48.92;101018.13;5052482;28;20463;-85
2023/05/29 06:45:49;;;;;;;;;;;;;;;21.95;49.01;101020.78;5054059;28;19925;-86
2023/05/29 06:48:14;;;;;;;;;;;;;;;22.04;49.99;101025.31;5053821;28;20655;-86
2023/05/29 06:50:40;;;;;;;;;;;;;;;22.01;50.18;101016.38;5053962;28;19917;-86
2023/05/29 06:53:05;;;;;;;;;;;;;;;22.00;50.23;101018.16;5049341;28;20062;-86
2023/05/29 06:55:31;;;;;;;;;;;;;;;21.99;51.17;101023.44;5032834;28;19943;-85
2023/05/29 06:57:56;;;;;;;;;;;;;;;21.95;51.45;101031.41;5048255;28;19916;-85
2023/05/29 07:00:22;;;;;;;;;;;;;;;21.96;51.49;101029.63;5040907;28;20394;-85
2023/05/29 07:02:48;;;;;;;;;;;;;;;22.00;51.73;101033.22;5036117;28;19986;-85
2023/05/29 07:05:13;;;;;;;;;;;;;;;21.99;51.94;101040.28;5036278;28;20748;-85
2023/05/29 07:07:39;;;;;;;;;;;;;;;21.93;51.84;101030.50;5042069;28;19917;-85
2023/05/29 07:10:06;;;;;;;;;;;;;;;21.99;51.61;101032.31;5053834;28;20525;-85
2023/05/29 07:12:31;;;;;;;;;;;;;;;21.96;51.64;101033.19;5035989;28;20003;-85
2023/05/29 07:14:56;;;;;;;;;;;;;;;21.92;51.86;101023.38;5053635;28;20011;-86
2023/05/29 07:17:22;;;;;;;;;;;;;;;21.98;51.80;101029.66;5053416;28;19913;-85
2023/05/29 07:19:49;;;;;;;;;;;;;;;21.91;51.63;101047.31;5053837;28;20445;-85
2023/05/29 07:22:15;;;;;;;;;;;;;;;21.92;51.75;101055.28;5053103;28;20012;-86
2023/05/29 07:24:40;;;;;;;;;;;;;;;21.89;51.80;101063.25;5035740;28;20023;-86
2023/05/29 07:27:06;;;;;;;;;;;;;;;21.93;51.79;101070.38;5053525;28;19975;-85
2023/05/29 07:29:31;;;;;;;;;;;;;;;21.89;52.11;101087.19;5053698;28;19960;-84
2023/05/29 07:31:56;;;;;;;;;;;;;;;21.85;52.33;101087.13;5035543;28;19917;-85
2023/05/29 07:34:22;;;;;;;;;;;;;;;21.86;52.29;101076.47;5053428;28;19940;-86
2023/05/29 07:36:57;;;;;;;;;;;;;;;21.82;52.10;101069.34;5053014;28;20405;-86
2023/05/29 07:39:22;;;;;;;;;;;;;;;21.81;52.13;101067.56;5053383;28;19966;-87
2023/05/29 07:41:48;;;;;;;;;;;;;;;21.80;52.50;101076.44;5052819;28;19917;-86
2023/05/29 07:44:13;;;;;;;;;;;;;;;21.82;53.21;101066.69;5043006;28;20174;-86
2023/05/29 07:46:38;;;;;;;;;;;;;;;21.77;52.85;101078.16;5052679;28;19936;-85
2023/05/29 07:49:04;;;;;;;;;;;;;;;21.72;52.48;101081.63;5053066;28;19932;-86
2023/05/29 07:51:29;;;;;;;;;;;;;;;21.73;52.78;101078.09;5052400;28;19921;-84
2023/05/29 07:53:54;;;;;;;;;;;;;;;21.77;52.76;101089.66;5040111;28;20455;-86
2023/05/29 07:56:21;;;;;;;;;;;;;;;21.78;52.92;101083.50;5052650;28;20393;-86
2023/05/29 07:58:46;;;;;;;;;;;;;;;21.74;52.61;101076.34;5052704;28;19952;-86
2023/05/29 08:01:12;;;;;;;;;;;;;;;21.79;52.95;101081.72;5035011;28;19974;-85
2023/05/29 08:03:37;;;;;;;;;;;;;;;21.79;52.94;101074.63;5050036;28;19917;-85
2023/05/29 08:06:03;;;;;;;;;;;;;;;21.71;53.11;101073.63;5052208;28;20611;-85
2023/05/29 08:08:28;;;;;;;;;;;;;;;21.72;53.24;101073.66;5052685;28;19979;-85
2023/05/29 08:10:53;;;;;;;;;;;;;;;21.70;53.32;101075.41;5034549;28;19929;-84
2023/05/29 08:13:19;;;;;;;;;;;;;;;21.61;53.34;101075.28;5052487;28;19955;-84
2023/05/29 08:15:45;;;;;;;;;;;;;;;21.57;53.76;101068.16;5052678;28;19970;-84
2023/05/29 08:18:10;;;;;;;;;;;;;;;21.57;54.26;101067.22;5035088;28;19916;-83
2023/05/29 08:20:36;;;;;;;;;;;;;;;21.54;53.99;101068.97;5052358;28;20329;-85
2023/05/29 08:23:01;;;;;;;;;;;;;;;21.50;54.14;101063.59;5052407;28;20015;-84
2023/05/29 08:25:27;;;;;;;;;;;;;;;21.59;54.11;101062.84;5052426;28;20378;-83
2023/05/29 08:27:52;;;;;;;;;;;;;;;21.57;54.45;101062.84;5034466;28;19974;-84
2023/05/29 08:30:18;;;;;;;;;;;;;;;21.51;54.11;101055.66;5039220;28;19995;-85
2023/05/29 08:32:44;;;;;;;;;;;;;;;21.62;54.09;101057.56;5052280;28;19916;-85
2023/05/29 08:35:09;;;;;;;;;;;;;;;21.64;54.25;101056.72;5052093;28;19917;-85
2023/05/29 08:37:35;;;;;;;;;;;;;;;21.57;54.27;101060.19;5052157;28;20393;-85
2023/05/29 08:40:01;;;;;;;;;;;;;;;21.61;54.24;101054.03;5034234;28;19912;-85
2023/05/29 08:42:32;;;;;;;;;;;;;;;21.66;54.16;101051.44;5052080;28;19924;-85
2023/05/29 08:44:57;;;;;;;;;;;;;;;21.62;54.04;101047.81;5051695;28;19921;-85
2023/05/29 08:47:23;;;;;;;;;;;;;;;21.62;53.82;101044.28;5051818;28;19939;-85
2023/05/29 08:49:54;;;;;;;;;;;;;;;21.62;53.93;101041.63;5034010;28;20104;-85
2023/05/29 08:52:21;;;;;;;;;;;;;;;21.61;54.04;101047.81;5020727;28;19921;-85
2023/05/29 08:54:47;;;;;;;;;;;;;;;21.59;54.38;101055.78;5051271;28;20007;-85
2023/05/29 08:57:12;;;;;;;;;;;;;;;21.44;54.81;101055.53;5033817;28;20004;-85
2023/05/29 08:59:39;;;;;;;;;;;;;;;21.36;55.15;101060.72;5050949;28;19924;-86
2023/05/29 09:02:05;;;;;;;;;;;;;;;21.31;55.79;101052.69;5043914;28;19936;-85
2023/05/29 09:04:31;;;;;;;;;;;;;;;21.34;55.57;101042.09;5051178;28;19917;-86
2023/05/29 09:06:58;;;;;;;;;;;;;;;21.33;55.85;101055.34;5045171;28;19929;-86
2023/05/29 09:09:24;;;;;;;;;;;;;;;21.38;55.40;101048.38;5051237;28;19917;-86
2023/05/29 09:11:49;;;;;;;;;;;;;;;21.40;55.16;101054.59;5051015;28;20360;-86
2023/05/29 09:14:34;;;;;;;;;;;;;;;21.51;54.99;101052.13;5051114;28;20385;-86
2023/05/29 09:16:59;;;;;;;;;;;;;;;21.46;54.75;101041.44;5051196;28;19921;-86
2023/05/29 09:19:25;;;;;;;;;;;;;;;21.47;54.81;101040.53;5051335;28;19920;-86
2023/05/29 09:21:51;;;;;;;;;;;;;;;21.49;55.17;101030.84;5051310;28;19916;-85
2023/05/29 09:24:16;;;;;;;;;;;;;;;21.41;55.31;101036.88;5050825;28;20000;-85
2023/05/29 09:26:50;;;;;;;;;;;;;;;21.39;55.50;101039.50;5051263;28;19956;-86
2023/05/29 09:29:16;;;;;;;;;;;;;;;21.47;55.11;101027.25;5051309;28;19967;-85
2023/05/29 09:31:47;;;;;;;;;;;;;;;21.46;55.10;101028.16;5052235;28;19960;-85
2023/05/29 09:34:13;;;;;;;;;;;;;;;21.53;55.02;101019.38;5038859;28;19967;-86
2023/05/29 09:36:38;;;;;;;;;;;;;;;21.52;54.95;101035.28;5051250;28;20398;-85
2023/05/29 09:39:04;;;;;;;;;;;;;;;21.55;54.93;101035.34;5046021;28;19925;-86
2023/05/29 09:41:31;;;;;;;;;;;;;;;21.49;54.80;101030.84;5051526;28;20434;-86
2023/05/29 09:43:56;;;;;;;;;;;;;;;21.50;54.85;101032.59;5051268;28;19952;-84
2023/05/29 09:46:22;;;;;;;;;;;;;;;21.50;54.93;101032.59;5051352;28;20368;-84
2023/05/29 09:48:48;;;;;;;;;;;;;;;21.50;54.85;101027.28;5051386;28;19956;-84
2023/05/29 09:51:22;;;;;;;;;;;;;;;21.50;54.63;101029.06;5050889;28;20011;-85
2023/05/29 09:53:48;;;;;;;;;;;;;;;21.51;54.56;101029.09;5051021;28;19917;-86
2023/05/29 09:56:17;;;;;;;;;;;;;;;21.53;54.59;101034.44;5051202;28;19924;-85
2023/05/29 09:58:45;;;;;;;;;;;;;;;21.51;54.53;101030.84;5033917;28;19920;-85
2023/05/29 10:01:35;;;;;;;;;;;;;;;21.52;54.54;101025.53;5034250;28;19921;-86
2023/05/29 10:04:05;;;;;;;;;;;;;;;21.54;54.44;101030.88;5034487;28;19950;-85
2023/05/29 10:06:32;;;;;;;;;;;;;;;21.52;54.41;101025.53;5047656;28;19920;-84
2023/05/29 10:08:58;;;;;;;;;;;;;;;21.54;54.37;101017.59;5015604;28;19921;-84
2023/05/29 10:11:27;;;;;;;;;;;;;;;21.55;54.61;101017.63;5019177;28;20028;-85
2023/05/29 10:13:52;;;;;;;;;;;;;;;21.50;54.50;101014.00;5016301;28;20027;-86
2023/05/29 10:16:21;;;;;;;;;;;;;;;21.45;55.33;101018.38;5048291;28;19928;-86
2023/05/29 10:18:50;;;;;;;;;;;;;;;21.41;55.03;101016.50;5017860;28;19932;-86
2023/05/29 10:21:17;;;;;;;;;;;;;;;21.39;55.32;101010.28;5030959;28;19921;-85
2023/05/29 10:24:10;;;;;;;;;;;;;;;21.39;55.29;101010.28;5034718;28;19924;-84
2023/05/29 10:29:43;;;;;;;;;;;;;;;21.49;54.82;101004.25;5051549;28;20443;-86
2023/05/29 10:32:56;;;;;;;;;;;;;;;21.49;54.82;101006.03;5048365;28;20773;-90
2023/05/29 10:35:40;;;;;;;;;;;;;;;21.44;55.29;100990.03;4966376;28;20058;-87
2023/05/29 10:38:16;;;;;;;;;;;;;;;21.29;56.28;100989.78;4966908;28;19924;-86
2023/05/29 10:40:42;;;;;;;;;;;;;;;21.12;56.63;100966.56;4958845;28;19926;-87
2023/05/29 10:43:26;;;;;;;;;;;;;;;21.28;56.35;100985.34;4980717;28;19962;-89
2023/05/29 10:45:52;;;;;;;;;;;;;;;21.36;55.64;100989.00;5054012;28;19972;-86
2023/05/29 10:48:23;;;;;;;;;;;;;;;21.39;55.48;100997.00;5021436;28;19974;-90
2023/05/29 10:50:50;;;;;;;;;;;;;;;21.42;55.85;100986.47;5047777;28;19917;-86
2023/05/29 10:53:16;;;;;;;;;;;;;;;21.39;55.73;100978.41;5034106;28;20287;-85
2023/05/29 10:55:41;;;;;;;;;;;;;;;21.47;55.63;100974.13;5049519;28;19928;-85
2023/05/29 10:58:16;;;;;;;;;;;;;;;21.46;55.55;100982.97;5024310;28;19935;-86
2023/05/29 11:00:55;;;;;;;;;;;;;;;21.38;55.83;100981.94;5045391;28;19924;-86
2023/05/29 11:03:22;;;;;;;;;;;;;;;21.45;55.42;100988.25;5050392;28;20283;-85
2023/05/29 11:06:25;;;;;;;;;;;;;;;21.46;55.37;100982.06;5018165;28;19921;-86
2023/05/29 11:09:31;;;;;;;;;;;;;;;21.44;55.31;100974.09;4976460;28;19929;-86
2023/05/29 11:12:38;;;;;;;;;;;;;;;21.45;55.12;100986.50;4964981;28;19929;-87
2023/05/29 11:15:26;;;;;;;;;;;;;;;21.45;55.45;100980.28;4986816;28;19914;-86
2023/05/29 11:17:55;;;;;;;;;;;;;;;21.34;56.45;100982.78;4977231;28;20391;-86
2023/05/29 11:20:33;;;;;;;;;;;;;;;21.34;55.85;100990.75;4980953;28;20447;-86
2023/05/29 11:22:58;;;;;;;;;;;;;;;21.34;55.90;100983.66;4991198;28;19969;-86
2023/05/29 11:25:32;;;;;;;;;;;;;;;21.38;55.78;100991.66;4991368;28;20675;-87
2023/05/29 11:27:59;;;;;;;;;;;;;;;21.37;55.79;100989.88;4975287;28;19949;-86
2023/05/29 11:30:24;;;;;;;;;;;;;;;21.38;56.23;100981.94;5028049;28;19929;-86
2023/05/29 11:32:52;;;;;;;;;;;;;;;21.33;55.94;100981.84;5044013;28;19991;-85
2023/05/29 11:35:17;;;;;;;;;;;;;;;21.35;55.62;100981.88;5028486;28;19944;-86
2023/05/29 11:37:45;;;;;;;;;;;;;;;21.35;56.16;100988.09;5029793;28;20557;-86
2023/05/29 11:40:12;;;;;;;;;;;;;;;21.30;56.64;100989.81;5034221;28;19917;-86
2023/05/29 11:42:44;;;;;;;;;;;;;;;21.29;56.91;100990.69;5037834;28;19917;-85
2023/05/29 11:45:16;;;;;;;;;;;;;;;21.25;57.50;100987.94;5017395;28;19925;-86
2023/05/29 11:48:20;;;;;;;;;;;;;;;21.25;56.64;100993.25;5031178;28;19921;-86
2023/05/29 11:50:46;;;;;;;;;;;;;;;21.32;56.30;100995.16;5024162;28;19967;-86
2023/05/29 11:53:32;;;;;;;;;;;;;;;21.34;56.70;100988.09;5036613;28;19955;-87
2023/05/29 11:56:07;;;;;;;;;;;;;;;21.34;56.14;100986.31;5041500;28;20012;-86
2023/05/29 11:58:34;;;;;;;;;;;;;;;21.31;57.15;100991.59;5022171;28;19992;-85
2023/05/29 12:01:00;;;;;;;;;;;;;;;21.29;57.05;100993.34;5033924;28;19928;-85
2023/05/29 12:06:44;;;;;;;;;;;;;;;21.35;56.51;100996.06;5053130;28;20306;-86
2023/05/29 12:09:31;;;;;;;;;;;;;;;21.27;57.73;100983.53;5030119;28;20318;-86
2023/05/29 12:12:41;;;;;;;;;;;;;;;21.35;56.87;100989.84;5016216;28;19917;-86
2023/05/29 12:15:08;;;;;;;;;;;;;;;21.33;56.71;100988.94;5036782;28;20289;-87
2023/05/29 12:17:34;;;;;;;;;;;;;;;21.39;56.68;100985.50;5046706;28;19917;-86
2023/05/29 12:20:00;;;;;;;;;;;;;;;21.33;56.54;100984.50;5028592;28;19967;-86
2023/05/29 12:22:43;;;;;;;;;;;;;;;21.37;56.62;100990.78;5047181;28;19925;-86
2023/05/29 12:25:14;;;;;;;;;;;;;;;21.33;56.50;100986.28;5043647;28;20283;-87
2023/05/29 12:27:43;;;;;;;;;;;;;;;21.31;57.35;100988.94;5034493;28;19917;-87
2023/05/29 12:30:15;;;;;;;;;;;;;;;21.30;56.41;100994.22;5049113;28;19917;-86
2023/05/29 12:32:59;;;;;;;;;;;;;;;21.37;56.77;100984.56;5050852;28;20417;-86
2023/05/29 12:35:26;;;;;;;;;;;;;;;21.34;57.07;100986.31;5049674;28;20475;-85
2023/05/29 12:37:54;;;;;;;;;;;;;;;21.39;56.84;100990.81;5022292;28;19920;-87
2023/05/29 12:40:46;;;;;;;;;;;;;;;21.38;56.74;100986.34;5049407;28;19921;-87
2023/05/29 12:43:18;;;;;;;;;;;;;;;21.36;57.45;100986.34;5049372;28;20583;-87
2023/05/29 12:46:15;;;;;;;;;;;;;;;21.36;57.20;100981.03;5005787;28;19925;-85
2023/05/29 12:48:52;;;;;;;;;;;;;;;21.39;56.90;100969.56;5037930;28;19956;-87